Time;durP1;ratioP1;P1;durP2;ratioP2;P2;SDS_P1;SDS_P2;PMS_P1;PMS_P2;Temp;Humidity;BMP_temperature;BMP_pressure;BME280_temperature;BME280_humidity;BME280_pressure;Samples;Min_cycle;Max_cycle;Signal;HPM_P1;HPM_P2
2022/05/12 00:02:07;;;;;;;4.50;2.33;;;;;;;;;;4979212;28;20034;-85
2022/05/12 00:04:33;;;;;;;4.95;2.25;;;;;;;;;;4979430;28;20094;-85
2022/05/12 00:06:59;;;;;;;2.90;2.30;;;;;;;;;;4979659;28;20097;-85
2022/05/12 00:09:25;;;;;;;6.32;2.30;;;;;;;;;;4980308;28;20070;-85
2022/05/12 00:11:51;;;;;;;3.67;2.08;;;;;;;;;;4962343;28;20051;-85
2022/05/12 00:14:17;;;;;;;2.60;2.22;;;;;;;;;;4961856;28;20535;-85
2022/05/12 00:16:42;;;;;;;5.63;2.30;;;;;;;;;;4979255;28;20110;-85
2022/05/12 00:19:08;;;;;;;5.00;2.33;;;;;;;;;;4980220;28;20050;-85
2022/05/12 00:21:34;;;;;;;4.25;2.35;;;;;;;;;;4979866;28;20399;-85
2022/05/12 00:23:59;;;;;;;5.80;2.30;;;;;;;;;;4961508;28;20039;-84
2022/05/12 00:26:26;;;;;;;4.55;2.30;;;;;;;;;;4979288;28;20038;-85
2022/05/12 00:28:52;;;;;;;3.92;2.38;;;;;;;;;;4978148;28;20074;-85
2022/05/12 00:31:18;;;;;;;3.13;2.08;;;;;;;;;;4979412;28;20034;-85
2022/05/12 00:33:44;;;;;;;3.67;2.10;;;;;;;;;;4979235;28;20046;-85
2022/05/12 00:36:09;;;;;;;4.93;2.35;;;;;;;;;;4978556;28;20583;-85
2022/05/12 00:38:35;;;;;;;4.55;2.30;;;;;;;;;;4979304;28;20045;-85
2022/05/12 00:41:00;;;;;;;3.80;2.28;;;;;;;;;;4961770;28;20031;-85
2022/05/12 00:43:46;;;;;;;3.88;2.20;;;;;;;;;;4962109;28;20019;-85
2022/05/12 00:46:20;;;;;;;3.97;2.30;;;;;;;;;;4977834;28;20046;-85
2022/05/12 00:48:47;;;;;;;4.13;2.20;;;;;;;;;;4979764;28;20072;-84
2022/05/12 00:51:17;;;;;;;5.57;2.20;;;;;;;;;;4979193;28;20070;-85
2022/05/12 00:53:45;;;;;;;3.47;2.40;;;;;;;;;;4962072;28;20035;-85
2022/05/12 00:56:16;;;;;;;4.60;2.50;;;;;;;;;;4978797;28;20031;-85
2022/05/12 00:58:42;;;;;;;5.45;3.00;;;;;;;;;;4961987;28;20043;-85
2022/05/12 01:01:10;;;;;;;3.83;2.50;;;;;;;;;;4977736;28;20411;-85
2022/05/12 01:03:38;;;;;;;6.65;2.67;;;;;;;;;;4978668;28;20039;-85
2022/05/12 01:06:03;;;;;;;6.60;2.42;;;;;;;;;;4979194;28;20038;-84
2022/05/12 01:08:29;;;;;;;3.20;2.33;;;;;;;;;;4978925;28;20038;-85
2022/05/12 01:10:58;;;;;;;3.58;2.15;;;;;;;;;;4978362;28;20068;-84
2022/05/12 01:13:24;;;;;;;3.95;2.40;;;;;;;;;;4978880;28;20039;-85
2022/05/12 01:15:57;;;;;;;4.32;2.40;;;;;;;;;;4978595;28;20118;-84
2022/05/12 01:18:26;;;;;;;7.55;2.50;;;;;;;;;;4961639;28;20549;-84
2022/05/12 01:20:52;;;;;;;4.28;2.53;;;;;;;;;;4980003;28;20557;-84
2022/05/12 01:23:24;;;;;;;4.72;2.50;;;;;;;;;;4981927;28;20104;-83
2022/05/12 01:25:50;;;;;;;3.05;2.50;;;;;;;;;;4964266;28;20049;-84
2022/05/12 01:28:15;;;;;;;5.88;2.60;;;;;;;;;;4980535;28;20046;-84
2022/05/12 01:30:41;;;;;;;6.88;2.72;;;;;;;;;;4980867;28;20042;-84
2022/05/12 01:33:07;;;;;;;4.57;2.42;;;;;;;;;;4964349;28;20133;-84
2022/05/12 01:35:32;;;;;;;5.57;2.60;;;;;;;;;;4981582;28;20030;-84
2022/05/12 01:37:59;;;;;;;5.63;2.53;;;;;;;;;;4963979;28;20050;-84
2022/05/12 01:40:25;;;;;;;5.80;2.50;;;;;;;;;;4981445;28;20498;-84
2022/05/12 01:42:53;;;;;;;7.32;2.55;;;;;;;;;;4982287;28;20086;-84
2022/05/12 01:45:21;;;;;;;5.18;2.47;;;;;;;;;;4981422;28;20053;-83
2022/05/12 01:47:47;;;;;;;5.18;2.55;;;;;;;;;;4982057;28;20035;-84
2022/05/12 01:50:14;;;;;;;4.22;2.33;;;;;;;;;;4964853;28;20031;-84
2022/05/12 01:52:43;;;;;;;3.60;2.47;;;;;;;;;;4981434;28;20038;-84
2022/05/12 01:55:14;;;;;;;6.18;2.40;;;;;;;;;;4981550;28;20146;-84
2022/05/12 01:57:43;;;;;;;8.63;2.50;;;;;;;;;;4981786;28;20042;-83
2022/05/12 02:00:14;;;;;;;5.57;2.60;;;;;;;;;;4981436;28;20031;-85
2022/05/12 02:02:40;;;;;;;5.32;2.47;;;;;;;;;;4981286;28;20038;-84
2022/05/12 02:05:09;;;;;;;4.25;2.40;;;;;;;;;;4963305;28;20143;-84
2022/05/12 02:07:41;;;;;;;5.63;2.35;;;;;;;;;;4981414;28;20045;-84
2022/05/12 02:10:09;;;;;;;4.05;2.70;;;;;;;;;;4981079;28;20062;-84
2022/05/12 02:12:34;;;;;;;4.22;2.30;;;;;;;;;;4980856;28;20059;-84
2022/05/12 02:15:00;;;;;;;5.05;2.40;;;;;;;;;;4981003;28;20049;-83
2022/05/12 02:17:25;;;;;;;5.70;2.63;;;;;;;;;;4981270;28;20085;-85
2022/05/12 02:19:51;;;;;;;4.60;2.40;;;;;;;;;;4980709;28;20106;-86
2022/05/12 02:22:18;;;;;;;4.60;2.30;;;;;;;;;;4980569;28;20035;-85
2022/05/12 02:24:44;;;;;;;6.47;2.60;;;;;;;;;;4979473;28;20249;-85
2022/05/12 02:27:09;;;;;;;5.85;2.72;;;;;;;;;;4980963;28;20553;-85
2022/05/12 02:29:35;;;;;;;5.47;2.63;;;;;;;;;;4963832;28;20042;-85
2022/05/12 02:32:01;;;;;;;4.80;2.70;;;;;;;;;;4978519;28;20138;-85
2022/05/12 02:34:26;;;;;;;7.13;2.72;;;;;;;;;;4980548;28;20622;-85
2022/05/12 02:37:01;;;;;;;3.92;2.55;;;;;;;;;;4980492;28;20034;-84
2022/05/12 02:39:37;;;;;;;6.65;2.47;;;;;;;;;;4981111;28;20124;-84
2022/05/12 02:42:05;;;;;;;3.30;2.50;;;;;;;;;;4979239;28;20038;-84
2022/05/12 02:44:30;;;;;;;3.70;2.35;;;;;;;;;;4962702;28;20027;-84
2022/05/12 02:46:57;;;;;;;3.60;2.50;;;;;;;;;;4979084;28;20043;-85
2022/05/12 02:49:22;;;;;;;4.40;2.38;;;;;;;;;;4979575;28;20037;-85
2022/05/12 02:51:48;;;;;;;5.43;2.70;;;;;;;;;;4963015;28;20070;-85
2022/05/12 02:54:18;;;;;;;7.22;2.65;;;;;;;;;;4980001;28;20038;-85
2022/05/12 02:56:44;;;;;;;3.60;2.42;;;;;;;;;;4980991;28;20061;-85
2022/05/12 02:59:10;;;;;;;5.13;2.50;;;;;;;;;;4980708;28;20630;-85
2022/05/12 03:01:36;;;;;;;4.85;2.47;;;;;;;;;;4962929;28;20443;-85
2022/05/12 03:04:01;;;;;;;4.10;2.58;;;;;;;;;;4979779;28;20523;-84
2022/05/12 03:06:27;;;;;;;5.45;2.50;;;;;;;;;;4978766;28;20043;-85
2022/05/12 03:08:53;;;;;;;3.60;2.40;;;;;;;;;;4979355;28;20458;-85
2022/05/12 03:11:20;;;;;;;6.25;2.50;;;;;;;;;;4978307;28;20034;-85
2022/05/12 03:13:46;;;;;;;4.50;2.75;;;;;;;;;;4947186;28;20031;-85
2022/05/12 03:16:13;;;;;;;3.88;2.50;;;;;;;;;;4978490;28;20041;-85
2022/05/12 03:18:39;;;;;;;5.40;2.70;;;;;;;;;;4962151;28;20043;-85
2022/05/12 03:21:05;;;;;;;4.45;2.45;;;;;;;;;;4962983;28;20030;-85
2022/05/12 03:23:31;;;;;;;3.50;2.55;;;;;;;;;;4979970;28;20435;-85
2022/05/12 03:25:57;;;;;;;3.80;2.90;;;;;;;;;;4979237;28;20668;-85
2022/05/12 03:28:23;;;;;;;5.28;2.75;;;;;;;;;;4979142;28;20038;-85
2022/05/12 03:30:49;;;;;;;5.63;2.88;;;;;;;;;;4979670;28;20041;-85
2022/05/12 03:33:15;;;;;;;7.05;2.70;;;;;;;;;;4978550;28;20064;-84
2022/05/12 03:35:41;;;;;;;6.82;2.90;;;;;;;;;;4978433;28;20030;-85
2022/05/12 03:38:07;;;;;;;3.88;2.80;;;;;;;;;;4979126;28;20062;-85
2022/05/12 03:40:32;;;;;;;4.10;2.72;;;;;;;;;;4979743;28;20030;-84
2022/05/12 03:42:58;;;;;;;6.10;2.88;;;;;;;;;;4979389;28;20035;-84
2022/05/12 03:45:26;;;;;;;5.00;2.58;;;;;;;;;;4978005;28;20030;-84
2022/05/12 03:47:51;;;;;;;5.22;2.70;;;;;;;;;;4962603;28;20039;-85
2022/05/12 03:50:20;;;;;;;6.22;2.75;;;;;;;;;;4979300;28;20058;-84
2022/05/12 03:52:47;;;;;;;6.80;2.80;;;;;;;;;;4977496;28;20059;-84
2022/05/12 03:55:16;;;;;;;4.07;2.75;;;;;;;;;;4977378;28;20415;-85
2022/05/12 03:57:42;;;;;;;4.13;2.85;;;;;;;;;;4979495;28;20117;-85
2022/05/12 04:00:12;;;;;;;5.82;2.85;;;;;;;;;;4962076;28;20034;-84
2022/05/12 04:02:37;;;;;;;6.28;3.00;;;;;;;;;;4979309;28;20058;-84
2022/05/12 04:05:04;;;;;;;8.90;2.75;;;;;;;;;;4961548;28;20550;-84
2022/05/12 04:07:29;;;;;;;7.93;3.10;;;;;;;;;;4977880;28;20035;-84
2022/05/12 04:09:55;;;;;;;5.45;2.63;;;;;;;;;;4979176;28;20102;-84
2022/05/12 04:12:20;;;;;;;4.53;2.88;;;;;;;;;;4961391;28;20046;-84
2022/05/12 04:14:46;;;;;;;5.53;2.88;;;;;;;;;;4979491;28;20054;-84
2022/05/12 04:17:14;;;;;;;4.90;2.70;;;;;;;;;;4961624;28;20522;-84
2022/05/12 04:19:40;;;;;;;4.78;3.25;;;;;;;;;;4979505;28;20045;-84
2022/05/12 04:22:06;;;;;;;4.40;2.65;;;;;;;;;;4979220;28;20042;-84
2022/05/12 04:24:31;;;;;;;3.97;2.42;;;;;;;;;;4978988;28;20042;-84
2022/05/12 04:26:57;;;;;;;6.03;2.80;;;;;;;;;;4961754;28;20086;-84
2022/05/12 04:29:24;;;;;;;7.55;2.90;;;;;;;;;;4977751;28;20034;-84
2022/05/12 04:31:50;;;;;;;3.75;2.50;;;;;;;;;;4978962;28;20535;-84
2022/05/12 04:36:59;;;;;;;5.45;3.50;;;;;;;;;;4978799;28;20043;-85
2022/05/12 04:39:25;;;;;;;6.93;3.03;;;;;;;;;;4961953;28;20031;-85
2022/05/12 04:41:53;;;;;;;5.88;2.80;;;;;;;;;;4977441;28;20096;-86
2022/05/12 04:44:19;;;;;;;4.43;2.80;;;;;;;;;;4977786;28;20476;-85
2022/05/12 04:46:45;;;;;;;5.65;3.00;;;;;;;;;;4961185;28;20042;-85
2022/05/12 04:49:12;;;;;;;8.50;2.90;;;;;;;;;;4979088;28;20043;-85
2022/05/12 04:51:38;;;;;;;5.25;2.67;;;;;;;;;;4979012;28;20074;-85
2022/05/12 04:54:09;;;;;;;6.13;3.05;;;;;;;;;;4977683;28;20043;-85
2022/05/12 04:56:36;;;;;;;6.60;2.80;;;;;;;;;;4981897;28;20038;-85
2022/05/12 04:59:02;;;;;;;5.50;2.90;;;;;;;;;;4965546;28;20071;-82
2022/05/12 05:01:27;;;;;;;7.45;3.05;;;;;;;;;;4982675;28;20038;-85
2022/05/12 05:03:53;;;;;;;4.25;3.13;;;;;;;;;;4981437;28;20042;-85
2022/05/12 05:06:18;;;;;;;4.65;2.90;;;;;;;;;;4983982;28;20109;-84
2022/05/12 05:08:43;;;;;;;4.45;2.72;;;;;;;;;;4984129;28;20046;-84
2022/05/12 05:11:09;;;;;;;9.90;3.10;;;;;;;;;;4981145;28;20121;-84
2022/05/12 05:13:34;;;;;;;9.05;3.03;;;;;;;;;;4983121;28;20081;-84
2022/05/12 05:16:02;;;;;;;7.40;3.35;;;;;;;;;;4983076;28;20031;-84
2022/05/12 05:18:28;;;;;;;8.02;3.40;;;;;;;;;;4982631;28;20468;-84
2022/05/12 05:20:53;;;;;;;5.03;3.10;;;;;;;;;;4965347;28;20491;-84
2022/05/12 05:23:21;;;;;;;5.65;3.20;;;;;;;;;;4981211;28;20061;-83
2022/05/12 05:25:48;;;;;;;5.10;3.30;;;;;;;;;;4982518;28;20129;-84
2022/05/12 05:28:14;;;;;;;7.00;3.20;;;;;;;;;;4982271;28;20035;-85
2022/05/12 05:30:41;;;;;;;5.35;2.90;;;;;;;;;;4982374;28;20034;-85
2022/05/12 05:33:07;;;;;;;3.80;2.90;;;;;;;;;;4964585;28;20034;-85
2022/05/12 05:35:34;;;;;;;8.50;3.10;;;;;;;;;;4948671;28;20038;-85
2022/05/12 05:38:00;;;;;;;4.22;3.08;;;;;;;;;;4983164;28;20488;-84
2022/05/12 05:40:25;;;;;;;5.03;3.10;;;;;;;;;;4967935;28;20061;-84
2022/05/12 05:42:52;;;;;;;5.97;2.95;;;;;;;;;;4984265;28;20158;-85
2022/05/12 05:45:18;;;;;;;10.27;3.13;;;;;;;;;;4982865;28;20027;-84
2022/05/12 05:47:48;;;;;;;4.13;2.72;;;;;;;;;;4982722;28;20031;-84
2022/05/12 05:50:19;;;;;;;4.97;3.00;;;;;;;;;;4966338;28;20062;-86
2022/05/12 05:55:29;;;;;;;4.32;3.03;;;;;;;;;;4981469;28;20415;-85
2022/05/12 05:57:57;;;;;;;7.80;3.05;;;;;;;;;;4982386;28;20031;-85
2022/05/12 06:00:23;;;;;;;5.80;2.92;;;;;;;;;;4983385;28;20031;-85
2022/05/12 06:02:49;;;;;;;4.80;3.00;;;;;;;;;;4982652;28;20179;-84
2022/05/12 06:05:17;;;;;;;5.57;3.10;;;;;;;;;;4982792;28;20559;-89
2022/05/12 06:07:43;;;;;;;8.38;3.05;;;;;;;;;;4981456;28;20109;-86
2022/05/12 06:10:08;;;;;;;6.30;3.10;;;;;;;;;;4982463;28;20047;-85
2022/05/12 06:12:34;;;;;;;9.80;2.97;;;;;;;;;;4981877;28;20109;-83
2022/05/12 06:15:04;;;;;;;4.45;2.70;;;;;;;;;;4948510;28;20038;-87
2022/05/12 06:17:30;;;;;;;4.78;2.88;;;;;;;;;;4981265;28;20070;-85
2022/05/12 06:19:56;;;;;;;4.72;2.65;;;;;;;;;;4980680;28;20033;-84
2022/05/12 06:22:22;;;;;;;6.03;3.17;;;;;;;;;;4982865;28;20035;-86
2022/05/12 06:24:49;;;;;;;5.45;3.05;;;;;;;;;;4981137;28;20038;-85
2022/05/12 06:27:22;;;;;;;5.95;2.80;;;;;;;;;;4965606;28;20409;-85
2022/05/12 06:29:48;;;;;;;4.78;2.80;;;;;;;;;;4982276;28;20480;-85
2022/05/12 06:32:15;;;;;;;3.92;2.97;;;;;;;;;;4981862;28;20046;-85
2022/05/12 06:34:46;;;;;;;6.72;3.00;;;;;;;;;;4980100;28;20403;-85
2022/05/12 06:37:12;;;;;;;7.32;2.90;;;;;;;;;;4981219;28;20078;-87
2022/05/12 06:39:38;;;;;;;5.63;2.80;;;;;;;;;;4964642;28;20042;-87
2022/05/12 06:42:05;;;;;;;7.28;2.95;;;;;;;;;;4980194;28;20038;-84
2022/05/12 06:44:42;;;;;;;7.28;2.80;;;;;;;;;;4962371;28;20030;-86
2022/05/12 06:47:14;;;;;;;7.82;2.70;;;;;;;;;;4977536;28;20185;-84
2022/05/12 06:49:40;;;;;;;5.43;2.40;;;;;;;;;;4981640;28;20030;-86
2022/05/12 06:52:07;;;;;;;8.50;2.38;;;;;;;;;;4978828;28;20026;-86
2022/05/12 06:54:34;;;;;;;13.05;2.38;;;;;;;;;;4961549;28;20093;-85
2022/05/12 06:57:01;;;;;;;8.00;2.25;;;;;;;;;;4977510;28;20031;-85
2022/05/12 06:59:26;;;;;;;6.78;2.10;;;;;;;;;;4980483;28;20086;-84
2022/05/12 07:01:52;;;;;;;6.80;2.03;;;;;;;;;;4981359;28;20046;-86
2022/05/12 07:04:18;;;;;;;12.00;2.20;;;;;;;;;;4980450;28;20415;-85
2022/05/12 07:06:44;;;;;;;4.82;2.30;;;;;;;;;;4981663;28;20034;-85
2022/05/12 07:09:10;;;;;;;9.35;2.25;;;;;;;;;;4981455;28;20066;-85
2022/05/12 07:11:35;;;;;;;10.80;2.35;;;;;;;;;;4980653;28;20050;-85
2022/05/12 07:14:01;;;;;;;7.10;2.10;;;;;;;;;;4981779;28;20048;-86
2022/05/12 07:16:26;;;;;;;7.28;2.30;;;;;;;;;;4980820;28;20030;-86
2022/05/12 07:18:52;;;;;;;9.02;2.08;;;;;;;;;;4964617;28;20034;-85
2022/05/12 07:26:47;;;;;;;5.82;2.17;;;;;;;;;;4981860;28;20035;-85
2022/05/12 07:29:20;;;;;;;5.15;2.10;;;;;;;;;;4980826;28;20039;-86
2022/05/12 07:31:47;;;;;;;3.67;2.20;;;;;;;;;;4963414;28;20039;-85
2022/05/12 07:34:13;;;;;;;7.10;2.53;;;;;;;;;;4979977;28;20030;-86
2022/05/12 07:36:43;;;;;;;7.68;2.42;;;;;;;;;;4981071;28;20495;-86
2022/05/12 07:39:11;;;;;;;4.15;2.22;;;;;;;;;;4980053;28;20043;-85
2022/05/12 07:41:39;;;;;;;4.88;2.25;;;;;;;;;;4981009;28;20035;-85
2022/05/12 07:44:05;;;;;;;6.30;2.10;;;;;;;;;;4979531;28;20027;-85
2022/05/12 07:46:30;;;;;;;7.78;2.60;;;;;;;;;;4978641;28;20034;-85
2022/05/12 07:48:56;;;;;;;7.40;2.10;;;;;;;;;;4979083;28;20035;-85
2022/05/12 07:51:24;;;;;;;5.00;2.10;;;;;;;;;;4978639;28;20050;-86
2022/05/12 07:53:50;;;;;;;6.10;2.00;;;;;;;;;;4978478;28;20046;-85
2022/05/12 07:56:21;;;;;;;4.18;2.00;;;;;;;;;;4980180;28;20039;-86
2022/05/12 07:58:48;;;;;;;4.80;1.98;;;;;;;;;;4980168;28;20515;-86
2022/05/12 08:01:15;;;;;;;4.97;2.22;;;;;;;;;;4979132;28;20510;-85
2022/05/12 08:03:41;;;;;;;3.45;2.08;;;;;;;;;;4979731;28;20407;-86
2022/05/12 08:06:07;;;;;;;6.00;2.20;;;;;;;;;;4977792;28;20039;-86
2022/05/12 08:08:35;;;;;;;7.03;1.83;;;;;;;;;;4979551;28;20046;-86
2022/05/12 08:11:01;;;;;;;11.73;2.65;;;;;;;;;;4977137;28;20043;-86
2022/05/12 08:13:27;;;;;;;12.40;2.67;;;;;;;;;;4979432;28;20098;-86
2022/05/12 08:15:53;;;;;;;5.32;2.35;;;;;;;;;;4979069;28;20042;-86
2022/05/12 08:18:21;;;;;;;5.57;2.30;;;;;;;;;;4980091;28;20034;-86
2022/05/12 08:20:47;;;;;;;3.20;2.00;;;;;;;;;;4979066;28;20034;-86
2022/05/12 08:23:13;;;;;;;5.53;2.25;;;;;;;;;;4979296;28;20061;-85
2022/05/12 08:25:40;;;;;;;7.80;2.50;;;;;;;;;;4977786;28;20043;-86
2022/05/12 08:28:06;;;;;;;5.15;2.17;;;;;;;;;;4979257;28;20049;-86
2022/05/12 08:30:32;;;;;;;6.72;2.30;;;;;;;;;;4982007;28;20030;-86
2022/05/12 08:32:58;;;;;;;5.93;2.13;;;;;;;;;;4983373;28;20047;-86
2022/05/12 08:35:24;;;;;;;7.07;2.33;;;;;;;;;;4965608;28;20547;-86
2022/05/12 08:37:50;;;;;;;4.97;2.38;;;;;;;;;;4965752;28;20039;-86
2022/05/12 08:40:30;;;;;;;5.22;2.20;;;;;;;;;;4983172;28;20042;-86
2022/05/12 08:43:04;;;;;;;4.72;2.25;;;;;;;;;;4983606;28;20399;-86
2022/05/12 08:45:30;;;;;;;6.03;2.53;;;;;;;;;;4982680;28;20090;-86
2022/05/12 08:47:57;;;;;;;4.22;2.08;;;;;;;;;;4982502;28;20404;-87
2022/05/12 08:50:27;;;;;;;5.55;2.60;;;;;;;;;;4982940;28;20553;-86
2022/05/12 08:52:57;;;;;;;9.05;2.35;;;;;;;;;;4982988;28;20412;-86
2022/05/12 08:55:30;;;;;;;5.93;2.38;;;;;;;;;;4982430;28;20064;-86
2022/05/12 08:58:07;;;;;;;;;;;;;;;;;;4966110;28;20061;-86
2022/05/12 09:00:51;;;;;;;5.00;2.10;;;;;;;;;;4982528;28;19921;-86
2022/05/12 09:03:39;;;;;;;9.35;2.22;;;;;;;;;;4982901;28;20372;-86
2022/05/12 09:06:17;;;;;;;8.13;2.35;;;;;;;;;;4964730;28;20046;-87
2022/05/12 09:08:54;;;;;;;4.38;2.35;;;;;;;;;;4982680;28;20098;-86
2022/05/12 09:11:38;;;;;;;5.70;2.45;;;;;;;;;;4982357;28;20486;-86
2022/05/12 09:14:09;;;;;;;6.47;2.30;;;;;;;;;;4982321;28;20031;-87
2022/05/12 09:16:35;;;;;;;8.02;2.30;;;;;;;;;;4982339;28;20042;-85
2022/05/12 09:19:01;;;;;;;5.22;2.40;;;;;;;;;;4949115;28;20074;-86
2022/05/12 09:21:29;;;;;;;9.13;2.40;;;;;;;;;;4964868;28;20035;-86
2022/05/12 09:23:58;;;;;;;5.88;2.30;;;;;;;;;;4981658;28;20092;-85
2022/05/12 09:26:30;;;;;;;5.38;2.30;;;;;;;;;;4982480;28;20039;-87
2022/05/12 09:29:08;;;;;;;3.67;2.45;;;;;;;;;;4980886;28;20034;-87
2022/05/12 09:31:34;;;;;;;5.47;2.25;;;;;;;;;;4982431;28;20031;-86
2022/05/12 09:34:14;;;;;;;6.32;2.45;;;;;;;;;;4982186;28;20086;-86
2022/05/12 09:36:40;;;;;;;3.38;2.10;;;;;;;;;;4965392;28;20411;-86
2022/05/12 09:39:05;;;;;;;6.78;2.50;;;;;;;;;;4980422;28;20035;-87
2022/05/12 09:41:41;;;;;;;7.13;2.45;;;;;;;;;;4981750;28;20483;-86
2022/05/12 09:44:26;;;;;;;5.38;2.30;;;;;;;;;;4981147;28;20491;-87
2022/05/12 09:46:56;;;;;;;4.65;2.60;;;;;;;;;;4981769;28;20061;-86
2022/05/12 09:49:23;;;;;;;6.68;2.45;;;;;;;;;;4982232;28;20067;-87
2022/05/12 09:51:49;;;;;;;9.68;2.30;;;;;;;;;;4982412;28;20077;-86
2022/05/12 09:54:26;;;;;;;7.13;2.10;;;;;;;;;;4981553;28;20507;-86
2022/05/12 09:57:02;;;;;;;4.70;2.40;;;;;;;;;;4980302;28;20038;-87
2022/05/12 09:59:32;;;;;;;5.15;2.22;;;;;;;;;;4981888;28;20144;-87
2022/05/12 10:02:01;;;;;;;4.70;2.50;;;;;;;;;;4982120;28;20031;-87
2022/05/12 10:10:20;;;;;;;6.93;2.35;;;;;;;;;;4980543;28;20467;-87
2022/05/12 10:12:56;;;;;;;4.18;2.20;;;;;;;;;;4981183;28;20031;-87
2022/05/12 10:15:30;;;;;;;4.88;2.10;;;;;;;;;;4981408;28;20038;-86
2022/05/12 10:18:01;;;;;;;7.47;2.13;;;;;;;;;;4982189;28;20380;-87
2022/05/12 10:20:29;;;;;;;4.25;2.28;;;;;;;;;;4981725;28;20058;-87
2022/05/12 10:23:22;;;;;;;5.30;2.40;;;;;;;;;;4980489;28;20126;-87
2022/05/12 10:26:10;;;;;;;4.55;2.50;;;;;;;;;;4981502;28;20069;-87
2022/05/12 10:28:44;;;;;;;5.78;2.40;;;;;;;;;;4980174;28;20030;-87
2022/05/12 10:31:10;;;;;;;5.95;2.35;;;;;;;;;;4981562;28;20039;-86
2022/05/12 10:33:41;;;;;;;6.68;2.60;;;;;;;;;;4981198;28;20047;-87
2022/05/12 10:36:23;;;;;;;6.72;2.40;;;;;;;;;;4981184;28;20047;-86
2022/05/12 10:38:54;;;;;;;5.97;2.40;;;;;;;;;;4964366;28;20038;-87
2022/05/12 10:41:29;;;;;;;5.40;2.50;;;;;;;;;;4981436;28;20030;-87
2022/05/12 10:44:16;;;;;;;5.75;2.45;;;;;;;;;;4981913;28;20407;-86
2022/05/12 10:47:12;;;;;;;7.65;2.20;;;;;;;;;;4981077;28;20035;-87
2022/05/12 10:50:26;;;;;;;6.30;2.20;;;;;;;;;;4979895;28;20034;-87
2022/05/12 10:53:06;;;;;;;5.40;2.42;;;;;;;;;;4958838;28;20135;-87
2022/05/12 10:55:56;;;;;;;6.82;2.63;;;;;;;;;;5015116;23;20054;-88
2022/05/12 10:58:43;;;;;;;5.60;2.47;;;;;;;;;;4977650;28;20035;-88
2022/05/12 11:01:22;;;;;;;6.95;2.35;;;;;;;;;;4995201;28;20045;-87
2022/05/12 11:04:16;;;;;;;5.35;2.50;;;;;;;;;;4994308;28;20411;-89
2022/05/12 11:06:49;;;;;;;8.07;2.53;;;;;;;;;;4960188;28;20072;-87
2022/05/12 11:09:29;;;;;;;4.53;2.40;;;;;;;;;;4994966;28;20112;-89
2022/05/12 11:12:01;;;;;;;4.40;2.53;;;;;;;;;;4989274;28;20415;-88
2022/05/12 11:14:39;;;;;;;5.60;2.30;;;;;;;;;;4995752;28;20038;-89
2022/05/12 11:17:08;;;;;;;9.23;2.38;;;;;;;;;;4996097;28;20394;-88
2022/05/12 11:19:33;;;;;;;4.63;2.00;;;;;;;;;;4978176;28;20045;-89
2022/05/12 11:22:30;;;;;;;8.10;2.70;;;;;;;;;;4961749;28;20031;-88
2022/05/12 11:25:01;;;;;;;3.85;2.20;;;;;;;;;;4993968;28;20038;-89
2022/05/12 11:27:44;;;;;;;5.63;2.30;;;;;;;;;;4994222;28;20030;-90
2022/05/12 11:30:34;;;;;;;5.22;2.60;;;;;;;;;;4994181;28;20427;-90
2022/05/12 11:33:34;;;;;;;5.50;2.33;;;;;;;;;;4993829;28;20096;-88
2022/05/12 11:36:00;;;;;;;6.13;2.30;;;;;;;;;;4993655;28;20039;-89
2022/05/12 11:38:37;;;;;;;5.43;2.53;;;;;;;;;;4993587;28;20120;-89
2022/05/12 11:41:04;;;;;;;4.45;2.30;;;;;;;;;;4976064;28;20030;-91
2022/05/12 11:47:01;;;;;;;6.07;2.50;;;;;;;;;;4992759;28;20050;-89
2022/05/12 11:49:32;;;;;;;6.20;2.22;;;;;;;;;;4993864;28;20077;-89
2022/05/12 11:52:06;;;;;;;4.35;2.03;;;;;;;;;;4994036;28;20042;-88
2022/05/12 11:54:53;;;;;;;6.78;2.33;;;;;;;;;;4993623;28;20042;-90
2022/05/12 11:57:22;;;;;;;5.07;2.30;;;;;;;;;;4993834;28;20046;-90
2022/05/12 11:59:56;;;;;;;5.82;2.30;;;;;;;;;;4994238;28;20112;-89
2022/05/12 12:02:28;;;;;;;7.10;2.50;;;;;;;;;;4993992;28;20026;-90
2022/05/12 12:04:57;;;;;;;4.88;2.70;;;;;;;;;;4975681;28;20061;-89
2022/05/12 12:07:32;;;;;;;4.22;2.40;;;;;;;;;;4993163;28;20030;-89
2022/05/12 12:10:40;;;;;;;5.35;2.50;;;;;;;;;;4991698;28;20045;-88
2022/05/12 12:13:15;;;;;;;5.40;2.60;;;;;;;;;;4965637;28;20081;-90
2022/05/12 12:15:44;;;;;;;5.82;2.58;;;;;;;;;;4992408;28;20061;-89
2022/05/12 12:18:18;;;;;;;5.78;2.40;;;;;;;;;;4997822;28;20061;-93
2022/05/12 12:20:46;;;;;;;4.18;2.67;;;;;;;;;;4996963;28;20030;-89
2022/05/12 12:23:29;;;;;;;6.85;2.55;;;;;;;;;;4993886;28;20054;-89
2022/05/12 12:26:11;;;;;;;6.50;2.50;;;;;;;;;;4993696;28;20066;-87
2022/05/12 12:28:58;;;;;;;4.93;2.80;;;;;;;;;;4993225;28;20041;-88
2022/05/12 12:31:37;;;;;;;5.95;2.50;;;;;;;;;;4992780;28;20043;-90
2022/05/12 12:34:21;;;;;;;7.53;2.75;;;;;;;;;;4992528;28;20041;-89
2022/05/12 12:36:47;;;;;;;4.93;2.42;;;;;;;;;;4999603;28;20061;-91
2022/05/12 12:39:28;;;;;;;4.75;2.50;;;;;;;;;;4994849;28;20042;-90
2022/05/12 12:42:15;;;;;;;6.45;2.25;;;;;;;;;;4992957;28;20042;-89
2022/05/12 12:44:43;;;;;;;4.32;2.30;;;;;;;;;;4991202;28;20053;-88
2022/05/12 12:47:46;;;;;;;8.70;2.40;;;;;;;;;;4992736;28;20129;-88
2022/05/12 12:50:23;;;;;;;3.70;2.40;;;;;;;;;;4975346;28;20030;-89
2022/05/12 12:52:50;;;;;;;5.95;2.42;;;;;;;;;;4993196;28;20105;-89
2022/05/12 12:58:39;;;;;;;5.15;2.15;;;;;;;;;;4992550;28;20069;-90
2022/05/12 13:01:12;;;;;;;8.38;2.38;;;;;;;;;;4975544;28;20434;-91
2022/05/12 13:03:42;;;;;;;4.13;2.20;;;;;;;;;;4992558;28;20553;-88
2022/05/12 13:06:16;;;;;;;6.80;2.40;;;;;;;;;;4992217;28;20113;-89
2022/05/12 13:08:42;;;;;;;8.32;2.58;;;;;;;;;;4991165;28;20561;-89
2022/05/12 13:11:16;;;;;;;8.65;2.70;;;;;;;;;;4958566;28;20029;-90
2022/05/12 13:13:54;;;;;;;7.88;2.70;;;;;;;;;;4991158;28;20038;-89
2022/05/12 13:16:27;;;;;;;4.35;2.40;;;;;;;;;;4975452;28;20042;-91
2022/05/12 13:18:54;;;;;;;3.28;2.30;;;;;;;;;;4995693;28;20076;-89
2022/05/12 13:21:26;;;;;;;8.18;2.80;;;;;;;;;;4995498;28;20041;-90
2022/05/12 13:24:22;;;;;;;5.20;2.72;;;;;;;;;;4995421;28;20038;-89
2022/05/12 13:26:49;;;;;;;7.18;2.55;;;;;;;;;;5006104;28;20094;-91
2022/05/12 13:29:26;;;;;;;5.55;2.55;;;;;;;;;;4996271;28;20031;-89
2022/05/12 13:32:00;;;;;;;5.55;2.40;;;;;;;;;;4986750;28;20030;-88
2022/05/12 13:34:31;;;;;;;6.20;2.58;;;;;;;;;;4994543;28;20488;-88
2022/05/12 13:37:13;;;;;;;4.72;2.40;;;;;;;;;;4978519;28;20038;-90
2022/05/12 13:39:49;;;;;;;6.72;2.50;;;;;;;;;;4962041;28;20039;-91
2022/05/12 13:42:39;;;;;;;6.43;2.38;;;;;;;;;;4995699;28;20042;-90
2022/05/12 13:45:31;;;;;;;2.67;2.25;;;;;;;;;;4984820;28;20053;-89
2022/05/12 13:47:58;;;;;;;4.00;2.25;;;;;;;;;;4961955;28;20030;-92
2022/05/12 13:50:44;;;;;;;6.18;2.45;;;;;;;;;;4995130;28;20125;-88
2022/05/12 13:53:09;;;;;;;6.45;2.40;;;;;;;;;;4961559;28;20069;-91
2022/05/12 13:55:36;;;;;;;4.30;2.42;;;;;;;;;;4993567;28;20076;-90
2022/05/12 13:58:01;;;;;;;5.97;2.50;;;;;;;;;;4995013;28;20038;-90
2022/05/12 14:00:35;;;;;;;5.10;2.30;;;;;;;;;;4977557;28;20042;-90
2022/05/12 14:03:30;;;;;;;7.07;2.60;;;;;;;;;;4977446;28;20085;-90
2022/05/12 14:06:20;;;;;;;6.70;2.42;;;;;;;;;;4995231;28;20399;-88
2022/05/12 14:08:46;;;;;;;6.50;2.35;;;;;;;;;;4984243;28;20038;-88
2022/05/12 14:11:15;;;;;;;3.10;2.22;;;;;;;;;;4996030;28;20117;-90
2022/05/12 14:19:37;;;;;;;5.07;2.58;;;;;;;;;;4995402;28;20046;-88
2022/05/12 14:22:10;;;;;;;3.78;2.45;;;;;;;;;;4977387;28;20042;-89
2022/05/12 14:24:40;;;;;;;3.97;2.30;;;;;;;;;;4994569;28;20038;-88
2022/05/12 14:27:06;;;;;;;5.47;2.13;;;;;;;;;;5003538;28;20475;-90
2022/05/12 14:29:32;;;;;;;5.75;2.30;;;;;;;;;;4977356;28;20037;-88
2022/05/12 14:31:58;;;;;;;5.13;2.25;;;;;;;;;;4963355;28;20506;-88
2022/05/12 14:34:26;;;;;;;6.38;2.70;;;;;;;;;;5001393;28;20030;-89
2022/05/12 14:36:52;;;;;;;8.15;2.17;;;;;;;;;;4987321;28;20034;-89
2022/05/12 14:39:19;;;;;;;8.18;2.70;;;;;;;;;;4999550;28;20506;-89
2022/05/12 14:41:45;;;;;;;5.00;2.10;;;;;;;;;;4996530;28;20041;-91
2022/05/12 14:44:11;;;;;;;4.80;2.60;;;;;;;;;;4994618;28;20038;-90
2022/05/12 14:46:40;;;;;;;5.57;2.13;;;;;;;;;;4996678;28;20025;-91
2022/05/12 14:49:07;;;;;;;6.88;2.40;;;;;;;;;;4977208;28;20034;-89
2022/05/12 14:51:33;;;;;;;4.85;2.33;;;;;;;;;;4977127;28;20487;-89
2022/05/12 14:53:59;;;;;;;6.07;2.50;;;;;;;;;;4994238;28;20037;-89
2022/05/12 14:56:25;;;;;;;5.82;2.30;;;;;;;;;;4997539;28;20112;-89
2022/05/12 14:58:50;;;;;;;6.57;2.10;;;;;;;;;;4995399;28;20038;-89
2022/05/12 15:01:17;;;;;;;6.32;2.40;;;;;;;;;;4994294;28;20029;-89
2022/05/12 15:03:43;;;;;;;7.57;2.30;;;;;;;;;;4994295;28;20038;-90
2022/05/12 15:06:08;;;;;;;4.72;2.38;;;;;;;;;;4994233;28;20125;-89
2022/05/12 15:08:34;;;;;;;4.07;2.30;;;;;;;;;;4994070;28;20541;-89
2022/05/12 15:11:00;;;;;;;4.63;2.35;;;;;;;;;;4993873;28;20495;-90
2022/05/12 15:13:25;;;;;;;5.15;2.40;;;;;;;;;;4980318;28;20042;-89
2022/05/12 15:15:54;;;;;;;4.47;2.55;;;;;;;;;;4992679;28;20093;-89
2022/05/12 15:18:20;;;;;;;4.50;2.40;;;;;;;;;;4993732;28;20042;-88
2022/05/12 15:20:45;;;;;;;3.78;2.50;;;;;;;;;;5002417;28;20030;-91
2022/05/12 15:23:11;;;;;;;5.63;2.45;;;;;;;;;;4992834;28;20034;-90
2022/05/12 15:25:37;;;;;;;6.38;2.22;;;;;;;;;;4993838;28;20099;-92
2022/05/12 15:28:03;;;;;;;4.32;2.20;;;;;;;;;;4960260;28;20045;-90
2022/05/12 15:30:29;;;;;;;6.65;2.40;;;;;;;;;;4993247;28;20446;-90